Time;durP1;ratioP1;P1;durP2;ratioP2;P2;SDS_P1;SDS_P2;PMS_P1;PMS_P2;Temp;Humidity;BMP_temperature;BMP_pressure;BME280_temperature;BME280_humidity;BME280_pressure;Samples;Min_cycle;Max_cycle;Signal;HPM_P1;HPM_P2
2023/02/14 00:00:21;;;;;;;35.50;30.67;;;2.20;99.90;;;;;;5008422;28;20462;-73
2023/02/14 00:02:48;;;;;;;41.58;32.92;;;2.20;99.90;;;;;;5003351;28;20140;-73
2023/02/14 00:05:14;;;;;;;51.17;38.92;;;2.20;99.90;;;;;;5003839;28;20052;-73
2023/02/14 00:07:40;;;;;;;49.92;39.10;;;2.20;99.90;;;;;;5008214;28;20504;-73
2023/02/14 00:10:07;;;;;;;42.53;35.38;;;2.20;99.90;;;;;;4989172;28;20743;-73
2023/02/14 00:12:33;;;;;;;44.28;36.90;;;2.30;99.90;;;;;;4976269;28;20052;-73
2023/02/14 00:17:47;;;;;;;52.92;38.53;;;2.30;99.90;;;;;;4992308;28;20519;-73
2023/02/14 00:20:13;;;;;;;45.97;36.55;;;2.30;99.90;;;;;;4993175;28;20044;-73
2023/02/14 00:22:39;;;;;;;38.50;32.17;;;2.30;99.90;;;;;;5009238;28;20088;-73
2023/02/14 00:25:05;;;;;;;37.97;31.00;;;2.30;99.90;;;;;;5008475;28;20347;-73
2023/02/14 00:27:31;;;;;;;36.70;32.22;;;2.20;99.90;;;;;;4990121;28;20053;-73
2023/02/14 00:30:01;;;;;;;37.53;32.07;;;2.30;99.90;;;;;;5008398;28;20064;-73
2023/02/14 00:32:28;;;;;;;37.03;32.13;;;2.30;99.90;;;;;;5007821;28;20103;-73
2023/02/14 00:34:54;;;;;;;37.10;31.85;;;2.20;99.90;;;;;;4991645;28;20591;-73
2023/02/14 00:37:21;;;;;;;38.80;32.47;;;2.20;99.90;;;;;;4991320;28;20049;-73
2023/02/14 00:39:46;;;;;;;34.75;29.92;;;2.20;99.90;;;;;;4975662;28;20044;-73
2023/02/14 00:42:13;;;;;;;34.40;28.47;;;2.20;99.90;;;;;;4990210;28;20043;-73
2023/02/14 00:44:39;;;;;;;33.93;30.20;;;2.10;99.90;;;;;;4993423;28;20041;-73
2023/02/14 00:47:05;;;;;;;36.38;32.03;;;2.10;99.90;;;;;;4974896;28;20565;-73
2023/02/14 00:49:31;;;;;;;41.40;34.63;;;2.10;99.90;;;;;;4989892;28;20049;-73
2023/02/14 00:51:56;;;;;;;45.03;36.10;;;2.10;99.90;;;;;;5007450;28;20045;-73
2023/02/14 00:54:22;;;;;;;53.07;40.50;;;2.20;99.90;;;;;;4977311;28;20033;-73
2023/02/14 00:56:48;;;;;;;62.97;43.57;;;2.20;99.90;;;;;;4991860;28;20057;-73
2023/02/14 00:59:14;;;;;;;56.83;41.30;;;2.30;99.90;;;;;;4988911;28;20091;-73
2023/02/14 01:01:39;;;;;;;51.55;38.30;;;2.30;99.90;;;;;;5009219;28;20709;-73
2023/02/14 01:04:08;;;;;;;47.70;36.92;;;2.20;99.90;;;;;;4991296;28;20056;-73
2023/02/14 01:06:34;;;;;;;54.35;39.50;;;2.10;99.90;;;;;;4975787;28;20037;-73
2023/02/14 01:09:00;;;;;;;56.08;41.45;;;2.00;99.90;;;;;;4994134;28;20053;-73
2023/02/14 01:11:26;;;;;;;54.85;40.30;;;2.00;99.90;;;;;;4992145;28;20059;-73
2023/02/14 01:13:54;;;;;;;54.87;40.67;;;2.00;99.90;;;;;;4996237;28;20053;-73
2023/02/14 01:16:22;;;;;;;53.00;40.10;;;1.90;99.90;;;;;;5010937;28;20045;-73
2023/02/14 01:18:48;;;;;;;59.40;41.95;;;2.00;99.90;;;;;;5009430;28;20076;-73
2023/02/14 01:21:27;;;;;;;58.43;43.00;;;2.00;99.90;;;;;;4997238;28;20126;-73
2023/02/14 01:23:54;;;;;;;51.83;39.95;;;2.00;99.90;;;;;;4992548;28;20570;-73
2023/02/14 01:26:21;;;;;;;58.83;42.75;;;2.00;99.90;;;;;;4994731;28;20073;-73
2023/02/14 01:28:47;;;;;;;59.97;42.23;;;2.00;99.90;;;;;;4993520;28;20096;-73
2023/02/14 01:31:14;;;;;;;66.47;45.37;;;2.00;99.90;;;;;;4995135;28;20131;-73
2023/02/14 01:33:42;;;;;;;66.35;44.85;;;2.00;99.90;;;;;;4993823;28;20049;-73
2023/02/14 01:36:23;;;;;;;68.32;45.97;;;2.10;99.90;;;;;;4977261;28;21013;-73
2023/02/14 01:38:55;;;;;;;68.03;45.90;;;2.10;99.90;;;;;;5011313;28;20584;-73
2023/02/14 01:41:21;;;;;;;65.33;46.73;;;2.10;99.90;;;;;;5010806;28;20415;-73
2023/02/14 01:43:55;;;;;;;63.23;45.03;;;2.20;99.90;;;;;;4993322;28;20555;-73
2023/02/14 01:46:21;;;;;;;74.90;47.67;;;2.20;99.90;;;;;;5005784;28;20057;-73
2023/02/14 01:48:48;;;;;;;76.53;51.57;;;2.20;99.90;;;;;;5008634;28;20451;-73
2023/02/14 01:51:17;;;;;;;84.80;55.53;;;2.30;99.90;;;;;;4991136;28;20037;-73
2023/02/14 01:53:43;;;;;;;86.43;56.83;;;2.40;99.90;;;;;;5008299;28;20520;-73
2023/02/14 01:56:16;;;;;;;89.13;57.53;;;2.50;99.90;;;;;;5008532;28;20033;-73
2023/02/14 01:58:44;;;;;;;88.93;57.47;;;2.60;99.90;;;;;;4985346;28;20191;-73
2023/02/14 02:01:16;;;;;;;93.97;59.45;;;2.70;99.90;;;;;;4982001;28;20049;-73
2023/02/14 02:03:57;;;;;;;97.87;60.63;;;2.70;99.90;;;;;;5001126;28;20041;-73
2023/02/14 02:06:25;;;;;;;;;;;2.90;99.90;;;;;;5003618;28;20080;-73
2023/02/14 02:09:23;;;;;;;93.75;58.75;;;2.90;99.90;;;;;;4985495;28;20440;-73
2023/02/14 02:11:49;;;;;;;100.43;62.85;;;2.90;99.90;;;;;;4985318;28;20542;-73
2023/02/14 02:14:17;;;;;;;95.38;58.85;;;3.00;99.90;;;;;;4964917;28;20138;-73
2023/02/14 02:17:03;;;;;;;94.15;59.55;;;3.10;99.90;;;;;;4987166;28;20053;-73
2023/02/14 02:20:01;;;;;;;93.13;59.83;;;3.20;99.90;;;;;;4998968;28;20053;-73
2023/02/14 02:22:45;;;;;;;96.45;57.72;;;3.20;99.90;;;;;;4994037;28;20083;-73
2023/02/14 02:25:49;;;;;;;92.60;57.55;;;3.20;99.90;;;;;;5010631;28;20056;-73
2023/02/14 02:29:03;;;;;;;83.82;52.92;;;3.20;99.90;;;;;;4993345;28;20416;-73
2023/02/14 02:31:32;;;;;;;86.82;54.60;;;3.10;99.90;;;;;;4911977;28;20044;-73
2023/02/14 02:34:27;;;;;;;79.85;51.53;;;3.00;99.90;;;;;;5010209;28;20077;-73
2023/02/14 02:37:11;;;;;;;84.85;53.85;;;3.10;99.90;;;;;;5003507;28;20049;-73
2023/02/14 02:40:11;;;;;;;77.88;52.35;;;3.00;99.90;;;;;;4994104;28;20442;-73
2023/02/14 02:43:13;;;;;;;82.43;53.55;;;3.00;99.90;;;;;;4995790;28;20063;-73
2023/02/14 02:49:12;;;;;;;86.72;54.42;;;2.90;99.90;;;;;;5010789;28;20057;-73
2023/02/14 02:54:40;;;;;;;93.35;56.92;;;2.90;99.90;;;;;;5011075;28;20136;-73
2023/02/14 02:57:14;;;;;;;88.00;56.35;;;3.00;99.90;;;;;;5010721;28;20515;-73
2023/02/14 02:59:43;;;;;;;91.43;56.70;;;2.90;99.90;;;;;;5009414;28;20083;-71
2023/02/14 03:02:15;;;;;;;78.18;53.88;;;2.90;99.90;;;;;;5011351;28;20044;-71
2023/02/14 03:04:52;;;;;;;92.75;57.88;;;2.90;99.90;;;;;;4995667;28;20049;-70
2023/02/14 03:07:34;;;;;;;92.00;55.60;;;2.90;99.90;;;;;;5010665;28;20041;-71
2023/02/14 03:10:32;;;;;;;87.00;53.75;;;2.90;99.90;;;;;;5006272;28;20672;-73
2023/02/14 03:13:41;;;;;;;74.35;51.08;;;2.90;99.90;;;;;;5000845;28;20057;-73
2023/02/14 03:16:07;;;;;;;66.30;48.13;;;2.90;99.90;;;;;;5008343;28;20053;-73
2023/02/14 03:21:56;;;;;;;76.10;50.97;;;2.80;99.90;;;;;;5005019;28;20056;-73
2023/02/14 03:24:25;;;;;;;68.10;48.60;;;2.80;99.90;;;;;;5004829;28;20769;-73
2023/02/14 03:27:14;;;;;;;77.65;51.42;;;2.70;99.90;;;;;;4991665;28;20221;-73
2023/02/14 03:29:57;;;;;;;87.50;56.15;;;2.70;99.90;;;;;;4993520;28;20599;-73
2023/02/14 03:32:44;;;;;;;72.43;50.38;;;2.70;99.90;;;;;;5009164;28;20057;-73
2023/02/14 03:35:14;;;;;;;74.28;52.50;;;2.70;99.90;;;;;;4994715;28;20057;-73
2023/02/14 03:37:46;;;;;;;95.95;57.13;;;2.70;99.90;;;;;;5010176;28;20169;-73
2023/02/14 03:40:34;;;;;;;97.13;59.75;;;2.70;99.90;;;;;;4988803;28;20549;-70
2023/02/14 03:43:24;;;;;;;93.30;56.90;;;2.70;99.90;;;;;;5006984;28;20454;-71
2023/02/14 03:46:02;;;;;;;98.15;58.72;;;2.70;99.90;;;;;;5014699;28;20112;-71
2023/02/14 03:48:29;;;;;;;106.35;60.35;;;2.70;99.90;;;;;;5006829;28;20079;-71
2023/02/14 03:51:00;;;;;;;100.85;59.80;;;2.70;99.90;;;;;;4995341;28;20140;-72
2023/02/14 03:53:30;;;;;;;109.15;60.95;;;2.60;99.90;;;;;;4992635;28;20499;-71
2023/02/14 03:56:17;;;;;;;105.28;60.78;;;2.60;99.90;;;;;;5010207;28;20067;-71
2023/02/14 03:58:52;;;;;;;96.93;58.17;;;2.60;99.90;;;;;;5012339;28;20134;-71
2023/02/14 04:01:27;;;;;;;100.28;60.40;;;2.60;99.90;;;;;;5007478;28;20048;-71
2023/02/14 04:03:55;;;;;;;85.55;56.10;;;2.50;99.90;;;;;;5009782;28;20627;-72
2023/02/14 04:06:22;;;;;;;97.10;58.90;;;2.50;99.90;;;;;;5010325;28;20052;-71
2023/02/14 04:08:48;;;;;;;99.68;61.20;;;2.50;99.90;;;;;;5009728;28;20053;-71
2023/02/14 04:11:13;;;;;;;108.22;64.15;;;2.50;99.90;;;;;;4981573;28;20065;-71
2023/02/14 04:13:39;;;;;;;100.95;62.10;;;2.50;99.90;;;;;;4969828;28;20048;-71
2023/02/14 04:16:08;;;;;;;105.07;60.85;;;2.50;99.90;;;;;;4996354;28;20041;-71
2023/02/14 04:21:18;;;;;;;94.78;60.38;;;2.50;99.90;;;;;;4998038;28;20088;-71
2023/02/14 04:23:44;;;;;;;108.38;63.40;;;2.50;99.90;;;;;;4966347;28;20152;-71
2023/02/14 04:26:10;;;;;;;98.75;60.55;;;2.50;99.90;;;;;;5000662;28;20050;-71
2023/02/14 04:28:36;;;;;;;100.80;63.50;;;2.40;99.90;;;;;;4947712;28;21364;-71
2023/02/14 04:31:04;;;;;;;102.53;64.82;;;2.50;99.90;;;;;;4999185;28;20042;-71
2023/02/14 04:33:30;;;;;;;112.85;66.40;;;2.50;99.90;;;;;;4983250;28;20625;-71
2023/02/14 04:35:55;;;;;;;102.47;63.35;;;2.50;99.90;;;;;;4981441;28;20065;-71
2023/02/14 04:38:21;;;;;;;113.15;67.13;;;2.50;99.90;;;;;;4979104;28;20092;-71
2023/02/14 04:40:51;;;;;;;100.07;65.13;;;2.50;99.90;;;;;;4976029;28;20107;-71
2023/02/14 04:43:17;;;;;;;108.28;65.93;;;2.60;99.90;;;;;;4977714;28;20070;-72
2023/02/14 04:45:43;;;;;;;110.90;68.05;;;2.60;99.90;;;;;;4999163;28;20061;-72
2023/02/14 04:48:09;;;;;;;108.20;64.80;;;2.60;99.90;;;;;;4983442;28;20136;-71
2023/02/14 04:50:35;;;;;;;109.68;67.18;;;2.60;99.90;;;;;;4985985;28;20046;-72
2023/02/14 04:53:01;;;;;;;109.85;68.30;;;2.60;99.90;;;;;;4985887;28;20045;-72
2023/02/14 04:55:27;;;;;;;110.00;67.53;;;2.60;99.90;;;;;;4966925;28;20085;-71
2023/02/14 04:57:53;;;;;;;104.53;65.55;;;2.60;99.90;;;;;;4983261;28;20136;-72
2023/02/14 05:00:23;;;;;;;108.30;66.85;;;2.70;99.90;;;;;;4968193;28;20051;-72
2023/02/14 05:02:48;;;;;;;96.85;62.20;;;2.60;99.90;;;;;;4959773;28;20061;-71
2023/02/14 05:05:14;;;;;;;101.55;65.47;;;2.60;99.90;;;;;;4987219;28;20058;-72
2023/02/14 05:07:41;;;;;;;127.60;75.20;;;2.60;99.90;;;;;;4999672;28;20053;-72
2023/02/14 05:10:08;;;;;;;95.40;63.03;;;2.60;99.90;;;;;;4994244;28;20084;-71
2023/02/14 05:12:34;;;;;;;88.45;61.40;;;2.50;99.90;;;;;;4998676;28;20099;-71
2023/02/14 05:15:03;;;;;;;92.20;61.70;;;2.60;99.90;;;;;;4994669;28;20115;-72
2023/02/14 05:17:29;;;;;;;93.25;59.40;;;2.50;99.90;;;;;;4996185;28;20072;-72
2023/02/14 05:19:57;;;;;;;113.80;67.90;;;2.50;99.90;;;;;;5012560;28;20168;-72
2023/02/14 05:22:23;;;;;;;104.40;64.32;;;2.40;99.90;;;;;;4978497;28;20069;-71
2023/02/14 05:24:49;;;;;;;108.63;65.30;;;2.40;99.90;;;;;;4982780;28;20132;-72
2023/02/14 05:27:15;;;;;;;102.35;65.40;;;2.40;99.90;;;;;;5006890;28;20076;-72
2023/02/14 05:29:40;;;;;;;104.95;64.85;;;2.40;99.90;;;;;;4995095;28;21346;-71
2023/02/14 05:32:07;;;;;;;93.78;60.17;;;2.40;99.90;;;;;;5006252;28;20407;-71
2023/02/14 05:34:33;;;;;;;104.85;67.63;;;2.40;99.90;;;;;;4992901;28;20045;-72
2023/02/14 05:36:59;;;;;;;87.97;60.33;;;2.30;99.90;;;;;;4979577;28;20384;-72
2023/02/14 05:39:27;;;;;;;97.22;62.30;;;2.30;99.90;;;;;;5009910;28;20041;-71
2023/02/14 05:41:55;;;;;;;87.40;59.33;;;2.30;99.90;;;;;;5011556;28;20496;-72
2023/02/14 05:44:21;;;;;;;77.00;55.03;;;2.30;99.90;;;;;;4995915;28;20056;-72
2023/02/14 05:46:47;;;;;;;93.72;60.63;;;2.30;99.90;;;;;;4961781;28;20148;-72
2023/02/14 05:49:13;;;;;;;74.90;54.90;;;2.30;99.90;;;;;;4964211;28;20606;-71
2023/02/14 05:51:39;;;;;;;76.22;56.63;;;2.20;99.90;;;;;;4989310;28;20066;-71
2023/02/14 05:54:04;;;;;;;77.00;55.25;;;2.20;99.90;;;;;;4978822;28;20053;-71
2023/02/14 05:56:30;;;;;;;67.93;51.67;;;2.10;99.90;;;;;;4990712;28;20137;-71
2023/02/14 05:58:56;;;;;;;68.72;52.05;;;2.10;99.90;;;;;;4990711;28;20102;-71
2023/02/14 06:01:22;;;;;;;61.55;49.08;;;2.10;99.90;;;;;;5007428;28;20052;-71
2023/02/14 06:03:51;;;;;;;71.53;51.50;;;2.10;99.90;;;;;;4990812;28;20509;-71
2023/02/14 06:06:17;;;;;;;68.27;51.27;;;2.00;99.90;;;;;;4993898;28;20037;-71
2023/02/14 06:08:42;;;;;;;74.85;54.95;;;2.00;99.90;;;;;;4977714;28;20045;-71
2023/02/14 06:11:11;;;;;;;85.20;58.42;;;2.00;99.90;;;;;;5000854;28;20061;-71
2023/02/14 06:13:39;;;;;;;96.18;62.83;;;2.00;99.90;;;;;;4995468;28;21182;-71
2023/02/14 06:16:05;;;;;;;92.05;61.15;;;2.00;99.90;;;;;;4968584;28;20041;-71
2023/02/14 06:18:31;;;;;;;87.90;61.38;;;2.00;99.90;;;;;;4981812;28;20427;-71
2023/02/14 06:20:57;;;;;;;82.63;58.70;;;2.00;99.90;;;;;;4983382;28;20423;-71
2023/02/14 06:23:23;;;;;;;73.70;55.30;;;2.00;99.90;;;;;;4985357;28;20046;-71
2023/02/14 06:25:48;;;;;;;81.55;58.53;;;2.00;99.90;;;;;;4984124;28;20057;-71
2023/02/14 06:28:14;;;;;;;141.87;74.13;;;2.00;99.90;;;;;;4966508;28;20239;-72
2023/02/14 06:30:40;;;;;;;62.83;50.30;;;2.00;99.90;;;;;;4980101;28;20113;-72
2023/02/14 06:33:06;;;;;;;62.95;49.20;;;2.00;99.90;;;;;;4951652;28;20045;-71
2023/02/14 06:35:31;;;;;;;67.60;51.43;;;1.90;99.90;;;;;;4997453;28;20459;-71
2023/02/14 06:37:57;;;;;;;107.60;64.60;;;1.90;99.90;;;;;;4992830;28;20555;-72
2023/02/14 06:40:23;;;;;;;70.22;52.33;;;1.90;99.90;;;;;;4989150;28;20638;-72
2023/02/14 06:42:49;;;;;;;68.30;50.90;;;1.80;99.90;;;;;;4953152;28;21302;-72
2023/02/14 06:45:15;;;;;;;75.10;54.70;;;1.80;99.90;;;;;;4974040;28;20053;-72
2023/02/14 06:47:41;;;;;;;81.90;56.50;;;1.80;99.90;;;;;;4978569;28;20049;-72
2023/02/14 06:50:10;;;;;;;78.07;55.10;;;1.90;99.90;;;;;;4979842;28;20041;-71
2023/02/14 06:52:36;;;;;;;77.70;55.00;;;1.80;99.90;;;;;;4976808;28;20053;-72
2023/02/14 06:55:01;;;;;;;106.47;67.23;;;1.80;99.90;;;;;;4960422;28;20049;-72
2023/02/14 06:57:27;;;;;;;74.60;55.47;;;1.80;99.90;;;;;;4960145;28;20120;-71
2023/02/14 06:59:53;;;;;;;85.57;59.70;;;1.80;99.90;;;;;;4977305;28;20390;-72
2023/02/14 07:02:22;;;;;;;65.55;51.85;;;1.80;99.90;;;;;;4943302;28;20053;-72
2023/02/14 07:04:48;;;;;;;79.20;53.80;;;1.80;99.90;;;;;;4994828;28;20057;-72
2023/02/14 07:07:14;;;;;;;56.28;46.42;;;1.70;99.90;;;;;;4976140;28;20148;-72
2023/02/14 07:09:40;;;;;;;74.63;54.78;;;1.80;99.90;;;;;;4980118;28;20049;-72
2023/02/14 07:12:05;;;;;;;53.88;44.95;;;1.70;99.90;;;;;;4995318;28;20045;-72
2023/02/14 07:14:31;;;;;;;56.75;46.72;;;1.70;99.90;;;;;;4961723;28;20045;-72
2023/02/14 07:16:57;;;;;;;64.88;51.20;;;1.70;99.90;;;;;;4959536;28;20050;-72
2023/02/14 07:19:23;;;;;;;76.68;55.10;;;1.70;99.90;;;;;;4979393;28;20061;-72
2023/02/14 07:21:49;;;;;;;53.55;45.35;;;1.70;99.90;;;;;;4981786;28;20879;-72
2023/02/14 07:24:14;;;;;;;65.57;51.58;;;1.70;99.90;;;;;;4964721;28;20052;-72
2023/02/14 07:26:40;;;;;;;64.33;49.13;;;1.80;99.90;;;;;;4966446;28;20566;-72
2023/02/14 07:29:06;;;;;;;60.77;48.10;;;1.70;99.90;;;;;;4989679;28;20411;-72
2023/02/14 07:31:32;;;;;;;63.38;49.72;;;1.90;99.90;;;;;;4981856;28;20045;-72
2023/02/14 07:34:00;;;;;;;69.85;54.55;;;1.90;99.90;;;;;;4990911;28;20064;-72
2023/02/14 07:36:25;;;;;;;63.45;50.70;;;1.90;99.90;;;;;;4979035;28;20501;-72
2023/02/14 07:38:51;;;;;;;65.22;50.95;;;2.00;99.90;;;;;;4979195;28;20053;-72
2023/02/14 07:41:17;;;;;;;121.43;68.53;;;2.00;99.90;;;;;;4995746;28;20223;-72
2023/02/14 07:43:43;;;;;;;49.53;43.83;;;2.00;99.90;;;;;;4980192;28;20106;-72
2023/02/14 07:46:09;;;;;;;57.40;48.47;;;2.10;99.90;;;;;;4993789;28;20060;-72
2023/02/14 07:48:34;;;;;;;64.47;50.88;;;2.10;99.90;;;;;;4994140;28;20056;-72
2023/02/14 07:51:01;;;;;;;67.05;52.78;;;2.10;99.90;;;;;;4989820;28;20117;-72
2023/02/14 07:53:27;;;;;;;68.32;52.72;;;2.20;99.90;;;;;;4993765;28;20058;-72
2023/02/14 07:55:53;;;;;;;79.38;60.13;;;2.20;99.90;;;;;;4960306;28;20046;-72
2023/02/14 07:58:19;;;;;;;63.05;51.15;;;2.30;99.90;;;;;;4962420;28;20730;-72
2023/02/14 08:00:49;;;;;;;79.82;60.25;;;2.20;99.90;;;;;;4994087;28;20053;-75
2023/02/14 08:03:15;;;;;;;70.32;55.50;;;2.40;99.90;;;;;;4975420;28;20627;-72
2023/02/14 08:05:41;;;;;;;66.93;53.65;;;2.30;99.90;;;;;;4976194;28;20049;-72
2023/02/14 08:08:07;;;;;;;60.08;51.42;;;2.50;99.90;;;;;;4978993;28;20069;-72
2023/02/14 08:10:33;;;;;;;68.47;55.45;;;2.60;99.90;;;;;;4998987;28;20505;-72
2023/02/14 08:12:59;;;;;;;67.10;56.43;;;2.50;99.90;;;;;;4990012;28;20051;-72
2023/02/14 08:18:19;;;;;;;62.05;53.58;;;2.70;99.90;;;;;;5001936;28;20128;-71
2023/02/14 08:20:48;;;;;;;66.43;55.28;;;2.70;99.90;;;;;;5007263;28;20712;-72
2023/02/14 08:23:18;;;;;;;69.60;56.50;;;2.80;99.90;;;;;;5009501;28;20111;-72
2023/02/14 08:25:44;;;;;;;61.50;54.65;;;2.90;99.90;;;;;;5011188;28;20045;-72
2023/02/14 08:28:12;;;;;;;61.58;54.97;;;2.90;99.90;;;;;;5011899;28;20466;-71
2023/02/14 08:30:41;;;;;;;60.13;53.10;;;3.00;99.90;;;;;;4993429;28;20129;-72
2023/02/14 08:33:11;;;;;;;58.85;52.65;;;3.10;99.90;;;;;;5010356;28;21447;-71
2023/02/14 08:35:40;;;;;;;57.70;51.45;;;3.20;99.90;;;;;;5008971;28;20404;-72
2023/02/14 08:38:05;;;;;;;60.60;54.22;;;3.20;99.90;;;;;;5009133;28;20065;-72
2023/02/14 08:40:32;;;;;;;57.22;51.20;;;3.30;99.90;;;;;;4977035;28;20568;-72
2023/02/14 08:42:58;;;;;;;58.22;52.17;;;3.40;99.90;;;;;;4996079;28;20119;-72
2023/02/14 08:45:27;;;;;;;54.58;48.95;;;3.50;99.90;;;;;;4996048;28;20389;-72
2023/02/14 08:47:53;;;;;;;55.15;49.47;;;3.60;99.90;;;;;;4978556;28;20053;-72
2023/02/14 08:50:19;;;;;;;56.65;50.67;;;3.60;99.90;;;;;;4962942;28;20447;-72
2023/02/14 08:52:45;;;;;;;53.63;48.08;;;3.70;99.90;;;;;;4991563;28;20146;-72
2023/02/14 08:55:12;;;;;;;55.78;50.13;;;3.80;99.90;;;;;;5010624;28;20128;-72
2023/02/14 08:57:39;;;;;;;57.33;51.42;;;3.80;99.90;;;;;;4995544;28;20053;-72
2023/02/14 09:00:06;;;;;;;56.20;50.15;;;3.90;99.90;;;;;;5010467;28;20049;-72
2023/02/14 09:02:33;;;;;;;50.70;45.72;;;4.00;99.90;;;;;;5007974;28;20527;-72
2023/02/14 09:04:59;;;;;;;53.92;48.42;;;4.10;99.90;;;;;;4994223;28;20603;-72
2023/02/14 09:07:27;;;;;;;52.42;47.33;;;4.20;99.90;;;;;;4990596;28;20108;-72
2023/02/14 09:09:53;;;;;;;50.53;45.63;;;4.20;99.90;;;;;;4994881;28;20060;-72
2023/02/14 09:12:19;;;;;;;48.28;43.47;;;4.30;99.90;;;;;;4993159;28;20050;-72
2023/02/14 09:14:45;;;;;;;50.80;45.80;;;4.30;99.90;;;;;;4995227;28;20117;-72
2023/02/14 09:17:14;;;;;;;51.90;46.90;;;4.30;99.90;;;;;;5009123;28;20045;-72
2023/02/14 09:19:40;;;;;;;50.27;45.27;;;4.50;99.90;;;;;;5007889;28;20079;-72
2023/02/14 09:22:12;;;;;;;46.88;42.20;;;4.50;99.90;;;;;;4990975;28;20053;-72
2023/02/14 09:24:40;;;;;;;50.67;45.63;;;4.60;99.90;;;;;;4990738;28;20405;-72
2023/02/14 09:27:06;;;;;;;45.22;40.92;;;4.70;99.90;;;;;;5005468;28;20049;-72
2023/02/14 09:29:32;;;;;;;47.60;43.00;;;4.70;99.90;;;;;;5009611;28;20056;-72
2023/02/14 09:31:59;;;;;;;47.72;43.03;;;4.80;99.90;;;;;;5004708;28;20309;-72
2023/02/14 09:34:26;;;;;;;46.85;42.42;;;4.90;99.90;;;;;;5009618;28;20158;-72
2023/02/14 09:36:52;;;;;;;46.90;42.20;;;5.00;99.90;;;;;;4992980;28;20076;-72
2023/02/14 09:39:18;;;;;;;48.45;43.72;;;5.00;99.90;;;;;;4994126;28;20073;-72
2023/02/14 09:41:57;;;;;;;46.65;42.17;;;5.10;99.90;;;;;;5009672;28;20057;-72
2023/02/14 09:44:40;;;;;;;45.50;41.20;;;5.20;99.90;;;;;;4995229;28;20052;-72
2023/02/14 09:47:51;;;;;;;46.70;42.15;;;5.30;99.90;;;;;;4992654;28;20096;-72
2023/02/14 09:50:35;;;;;;;49.88;45.10;;;5.40;99.90;;;;;;4983219;28;20148;-72
2023/02/14 09:53:07;;;;;;;46.72;42.33;;;5.50;99.90;;;;;;4991810;28;20049;-72
2023/02/14 09:56:03;;;;;;;47.60;42.75;;;5.60;99.90;;;;;;4995172;28;20045;-72
2023/02/14 09:58:32;;;;;;;46.15;41.65;;;5.70;99.90;;;;;;4992119;28;20049;-72
2023/02/14 10:01:02;;;;;;;44.72;40.53;;;5.80;99.90;;;;;;5007862;28;20037;-72
2023/02/14 10:03:30;;;;;;;46.97;42.37;;;5.80;99.90;;;;;;5008147;28;20045;-71
2023/02/14 10:06:19;;;;;;;44.97;40.50;;;5.90;99.90;;;;;;4990941;28;20296;-71
2023/02/14 10:09:04;;;;;;;46.42;41.78;;;6.00;99.90;;;;;;5006713;28;20057;-71
2023/02/14 10:11:30;;;;;;;47.92;43.33;;;6.10;99.90;;;;;;5001505;28;20115;-72
2023/02/14 10:14:07;;;;;;;47.22;42.63;;;6.10;99.90;;;;;;4978564;28;20049;-74
2023/02/14 10:16:42;;;;;;;49.25;44.28;;;6.20;99.90;;;;;;4977003;28;20112;-72
2023/02/14 10:19:27;;;;;;;46.17;41.75;;;6.20;99.90;;;;;;4996973;28;20099;-71
2023/02/14 10:21:55;;;;;;;45.47;41.17;;;6.30;99.90;;;;;;4975917;28;20531;-71
2023/02/14 10:24:34;;;;;;;44.95;40.45;;;6.40;99.90;;;;;;4992053;28;20046;-71
2023/02/14 10:27:10;;;;;;;45.47;41.15;;;6.40;99.90;;;;;;4978312;28;20058;-71
2023/02/14 10:29:37;;;;;;;45.63;41.15;;;6.50;99.90;;;;;;4980288;28;20637;-71
2023/02/14 10:32:10;;;;;;;46.55;41.95;;;6.60;99.90;;;;;;4980645;28;20083;-72
2023/02/14 10:34:53;;;;;;;47.50;42.90;;;6.60;99.90;;;;;;4976030;28;20046;-72
2023/02/14 10:37:56;;;;;;;44.00;39.80;;;6.70;99.90;;;;;;4998338;28;20045;-71
2023/02/14 10:41:00;;;;;;;44.45;40.25;;;6.80;99.90;;;;;;4995814;28;20042;-71
2023/02/14 10:43:26;;;;;;;43.35;39.00;;;6.80;99.90;;;;;;4979341;28;20140;-71
2023/02/14 10:46:24;;;;;;;42.78;38.38;;;6.90;99.90;;;;;;4985984;28;20088;-73
2023/02/14 10:48:50;;;;;;;44.78;40.47;;;7.00;99.90;;;;;;4996831;28;20052;-72
2023/02/14 10:51:29;;;;;;;45.55;41.13;;;7.10;99.90;;;;;;4996949;28;20046;-71
2023/02/14 10:54:21;;;;;;;43.35;38.95;;;7.20;99.90;;;;;;4975091;28;20085;-72
2023/02/14 10:56:57;;;;;;;44.25;39.95;;;7.30;99.90;;;;;;4975504;28;20103;-71
2023/02/14 10:59:34;;;;;;;41.95;37.72;;;7.40;99.90;;;;;;4997512;28;20063;-71
2023/02/14 11:02:04;;;;;;;43.28;38.95;;;7.40;99.90;;;;;;4975296;28;20156;-71
2023/02/14 11:04:31;;;;;;;43.22;39.08;;;7.50;99.90;;;;;;4985103;28;20087;-71
2023/02/14 11:06:57;;;;;;;44.80;40.00;;;7.50;99.90;;;;;;4996061;28;20519;-71
2023/02/14 11:09:23;;;;;;;43.03;38.72;;;7.60;99.90;;;;;;4983281;28;20117;-71
2023/02/14 11:11:58;;;;;;;43.45;39.08;;;7.60;99.90;;;;;;4971353;28;20069;-72
2023/02/14 11:14:28;;;;;;;43.97;39.38;;;7.80;99.90;;;;;;5003874;28;20602;-71
2023/02/14 11:16:55;;;;;;;43.80;39.55;;;7.90;99.90;;;;;;4988723;28;20060;-71
2023/02/14 11:19:25;;;;;;;45.97;41.13;;;8.00;99.90;;;;;;4973686;28;20106;-71
2023/02/14 11:21:53;;;;;;;45.33;40.80;;;8.10;99.90;;;;;;5006985;28;20041;-73
2023/02/14 11:24:33;;;;;;;44.03;39.53;;;8.10;99.90;;;;;;5003354;28;20077;-71
2023/02/14 11:27:10;;;;;;;44.17;39.75;;;8.30;99.90;;;;;;4987272;28;20041;-71
2023/02/14 11:29:43;;;;;;;45.80;41.20;;;8.30;99.90;;;;;;4999026;28;20817;-71
2023/02/14 11:32:24;;;;;;;46.33;41.42;;;8.40;99.90;;;;;;5002444;28;20045;-71
2023/02/14 11:34:52;;;;;;;46.65;41.85;;;8.50;99.90;;;;;;5004855;28;20250;-71
2023/02/14 11:37:24;;;;;;;43.70;39.25;;;8.50;99.90;;;;;;4984969;28;20086;-71
2023/02/14 11:39:53;;;;;;;46.72;42.03;;;8.60;99.90;;;;;;4989627;28;20064;-71
2023/02/14 11:42:46;;;;;;;44.15;39.40;;;8.60;99.90;;;;;;4988291;28;20037;-71
2023/02/14 11:45:36;;;;;;;44.05;39.63;;;8.70;99.90;;;;;;4985120;28;20045;-72
2023/02/14 11:48:05;;;;;;;44.83;40.47;;;8.80;99.90;;;;;;4986982;28;20534;-71
2023/02/14 11:50:31;;;;;;;46.13;41.45;;;8.90;99.90;;;;;;5002679;28;20111;-71
2023/02/14 11:52:58;;;;;;;47.53;41.15;;;9.00;99.90;;;;;;4988797;28;20492;-71
2023/02/14 11:55:33;;;;;;;45.63;40.88;;;9.10;99.90;;;;;;4986313;28;20042;-71
2023/02/14 11:58:02;;;;;;;45.83;40.83;;;9.10;99.90;;;;;;4992836;28;20061;-71
2023/02/14 12:00:30;;;;;;;43.72;38.67;;;9.20;99.90;;;;;;5002685;28;20107;-71
2023/02/14 12:02:57;;;;;;;42.75;38.42;;;9.30;99.90;;;;;;4982429;28;20426;-71
2023/02/14 12:05:49;;;;;;;44.05;39.65;;;9.40;99.90;;;;;;5003377;28;20415;-71
2023/02/14 12:08:23;;;;;;;44.08;39.38;;;9.40;99.90;;;;;;4989180;28;20046;-71
2023/02/14 12:11:18;;;;;;;44.35;39.67;;;9.50;99.90;;;;;;5000094;28;20447;-72
2023/02/14 12:14:19;;;;;;;46.08;41.22;;;9.60;99.90;;;;;;4993180;28;20374;-71
2023/02/14 12:16:54;;;;;;;42.50;38.30;;;9.70;99.90;;;;;;4992110;28;20115;-71
2023/02/14 12:19:39;;;;;;;45.28;40.47;;;9.80;99.90;;;;;;4976575;28;20188;-71
2023/02/14 12:22:06;;;;;;;44.33;39.90;;;9.90;99.90;;;;;;4993612;28;20053;-72
2023/02/14 12:24:42;;;;;;;40.80;36.72;;;10.00;99.90;;;;;;4964095;28;20382;-71
2023/02/14 12:27:42;;;;;;;43.13;38.47;;;10.00;99.90;;;;;;4992213;28;20050;-72
2023/02/14 12:30:18;;;;;;;;;;;10.10;99.90;;;;;;4978849;28;20060;-71
2023/02/14 12:32:49;;;;;;;41.78;37.47;;;10.10;99.90;;;;;;4978678;28;20274;-70
2023/02/14 12:35:21;;;;;;;43.17;38.90;;;10.10;99.90;;;;;;4970631;28;20049;-71
2023/02/14 12:38:20;;;;;;;40.95;36.78;;;10.20;99.90;;;;;;4988588;28;20056;-73
2023/02/14 12:41:28;;;;;;;43.00;37.35;;;10.20;99.90;;;;;;4957758;28;20054;-71
2023/02/14 12:43:56;;;;;;;39.97;35.88;;;10.30;99.90;;;;;;4990226;28;20344;-71
2023/02/14 12:46:51;;;;;;;42.90;38.33;;;10.40;99.90;;;;;;4977553;28;20056;-71
2023/02/14 12:49:38;;;;;;;38.83;34.92;;;10.50;99.90;;;;;;4971938;28;20042;-72
2023/02/14 12:52:15;;;;;;;39.58;35.50;;;10.50;99.90;;;;;;4991081;28;20069;-72
2023/02/14 12:54:53;;;;;;;41.40;37.20;;;10.60;99.90;;;;;;4971324;28;20042;-74
2023/02/14 12:57:32;;;;;;;40.70;36.50;;;10.70;99.90;;;;;;4990834;28;20422;-74
2023/02/14 13:00:41;;;;;;;38.88;35.00;;;10.70;99.90;;;;;;4977540;28;20076;-74
2023/02/14 13:03:51;;;;;;;41.53;37.38;;;10.80;99.90;;;;;;4967999;28;20869;-76
2023/02/14 13:06:33;;;;;;;42.33;37.90;;;10.80;99.90;;;;;;4901882;28;20426;-74
2023/02/14 13:09:13;;;;;;;41.42;37.30;;;10.90;99.90;;;;;;4919609;28;20058;-74
2023/02/14 13:12:00;;;;;;;41.40;37.20;;;10.90;99.90;;;;;;4940037;28;20468;-74
2023/02/14 13:15:08;;;;;;;42.67;38.25;;;11.00;99.90;;;;;;4980172;28;20103;-74
2023/02/14 13:17:43;;;;;;;42.28;37.88;;;11.00;99.90;;;;;;4989133;28;20474;-73